23:52
Airports
Links
Donate
Help keep this website running!
PayPal
Bitcoin
METAR
KBED 192256Z 21009KT 10SM CLR 17/05 A2999 RMK AO2 SLP168 T01720050
Current Weather Conditions at KBED
VFR 22:56:00 19-10-17
Automated station
Altimeter:29.99 hg
Temp:17.2°c 63°f
Dew point:5.0°c 41°f
Wind:9 knots, 10.4 mph, 5 m/s, from 210°
Visibility:10.0 statute miles
(CLR) Clear
Past METAR reports
VFR 21:56:00 19-10-17
Automated station
Altimeter:29.99 hg
Temp:18.3°c 64°f
Dew point:5.6°c 41°f
Wind:7 knots, 8.1 mph, 4 m/s, from 200°
Visibility:10.0 statute miles
(CLR) Clear
KBED 192156Z 20007KT 10SM CLR 18/06 A2999 RMK AO2 SLP168 T01830056
VFR 20:56:00 19-10-17
Automated station
Altimeter:29.99 hg
Temp:21.1°c 70°f
Dew point:4.4°c 39°f
Wind:12 knots, 13.8 mph, 6 m/s, from 200°
Visibility:10.0 statute miles
25000(SCT) Scattered
KBED 192056Z 20012KT 10SM SCT250 21/04 A2999 RMK AO2 SLP168 T02110044 56027
VFR 19:56:00 19-10-17
Automated station
Altimeter:30.01 hg
Temp:22.8°c 72°f
Dew point:4.4°c 39°f
Wind:14 knots, 16.1 mph, 7 m/s, from 220°
Visibility:10.0 statute miles
25000(SCT) Scattered
KBED 191956Z 22014G20KT 10SM SCT250 23/04 A3001 RMK AO2 SLP176 T02280044
VFR 18:56:00 19-10-17
Automated station
Altimeter:30.04 hg
Temp:23.3°c 73°f
Dew point:4.4°c 39°f
Wind:13 knots, 15 mph, 7 m/s, from 220°
Visibility:10.0 statute miles
(CLR) Clear
KBED 191856Z 22013G19KT 10SM CLR 23/04 A3004 RMK AO2 PK WND 20026/1822 SLP185 T02330044
VFR 17:56:00 19-10-17
Automated station
Altimeter:30.07 hg
Temp:22.8°c 72°f
Dew point:6.7°c 43°f
Wind:12 knots, 13.8 mph, 6 m/s, from 210°
Visibility:10.0 statute miles
(CLR) Clear
KBED 191756Z 21012KT 10SM CLR 23/07 A3007 RMK AO2 SLP195 T02280067 10228 20050 58031
TAF
KBED 192320Z 2000/2024 22009KT P6SM SCT250 FM200900 26004KT 1/2SM FG OVC002 FM201200 29005KT P6SM SKC FM201500 31010KT P6SM SKC
Forecast at KBED
00:00 20-10-17 to 09:00 20-10-17
Wind:9 Knots from 220°
Visibility:6.21 statute miles
25000SCT Scattered
FM 09:00 20-10-17 to 12:00 20-10-17
FG
Wind:4 Knots from 260°
Visibility:0.5 statute miles
200OVC Overcast
FM 12:00 20-10-17 to 15:00 20-10-17
Wind:5 Knots from 290°
Visibility:6.21 statute miles
SKC Clear
FM 15:00 20-10-17 to 00:00 21-10-17
Wind:10 Knots from 310°
Visibility:6.21 statute miles
SKC Clear